sensor_id;sensor_type;location;lat;lon;timestamp;temperature;humidity
72440;DHT22;60446;50.752;4.352;2023-07-13T00:02:08;16.60;67.00
72440;DHT22;60446;50.752;4.352;2023-07-13T00:04:36;16.50;67.00
72440;DHT22;60446;50.752;4.352;2023-07-13T00:07:04;16.50;67.50
72440;DHT22;60446;50.752;4.352;2023-07-13T00:09:31;16.40;67.60
72440;DHT22;60446;50.752;4.352;2023-07-13T00:11:58;16.40;67.60
72440;DHT22;60446;50.752;4.352;2023-07-13T00:14:27;16.30;67.90
72440;DHT22;60446;50.752;4.352;2023-07-13T00:16:55;16.30;68.30
72440;DHT22;60446;50.752;4.352;2023-07-13T00:19:23;16.30;68.30
72440;DHT22;60446;50.752;4.352;2023-07-13T00:21:51;16.30;68.60
72440;DHT22;60446;50.752;4.352;2023-07-13T00:24:22;16.20;68.50
72440;DHT22;60446;50.752;4.352;2023-07-13T00:26:51;16.20;68.80
72440;DHT22;60446;50.752;4.352;2023-07-13T00:29:18;16.20;69.00
72440;DHT22;60446;50.752;4.352;2023-07-13T00:31:48;16.20;69.10
72440;DHT22;60446;50.752;4.352;2023-07-13T00:34:16;16.20;69.20
72440;DHT22;60446;50.752;4.352;2023-07-13T00:36:43;16.10;69.40
72440;DHT22;60446;50.752;4.352;2023-07-13T00:39:10;16.10;69.60
72440;DHT22;60446;50.752;4.352;2023-07-13T00:41:39;16.10;69.70
72440;DHT22;60446;50.752;4.352;2023-07-13T00:44:16;16.00;69.80
72440;DHT22;60446;50.752;4.352;2023-07-13T00:46:44;16.00;69.70
72440;DHT22;60446;50.752;4.352;2023-07-13T00:49:16;16.00;70.00
72440;DHT22;60446;50.752;4.352;2023-07-13T00:51:58;15.90;70.20
72440;DHT22;60446;50.752;4.352;2023-07-13T00:54:37;15.90;70.30
72440;DHT22;60446;50.752;4.352;2023-07-13T00:57:09;15.90;70.50
72440;DHT22;60446;50.752;4.352;2023-07-13T00:59:42;15.80;70.70
72440;DHT22;60446;50.752;4.352;2023-07-13T01:02:12;15.80;71.10
72440;DHT22;60446;50.752;4.352;2023-07-13T01:04:39;15.80;70.90
72440;DHT22;60446;50.752;4.352;2023-07-13T01:07:06;15.80;70.80
72440;DHT22;60446;50.752;4.352;2023-07-13T01:09:34;15.80;71.00
72440;DHT22;60446;50.752;4.352;2023-07-13T01:12:01;15.80;71.20
72440;DHT22;60446;50.752;4.352;2023-07-13T01:14:30;15.70;71.40
72440;DHT22;60446;50.752;4.352;2023-07-13T01:16:57;15.70;71.70
72440;DHT22;60446;50.752;4.352;2023-07-13T01:22:09;15.60;71.70
72440;DHT22;60446;50.752;4.352;2023-07-13T01:24:40;15.60;71.80
72440;DHT22;60446;50.752;4.352;2023-07-13T01:27:11;15.60;71.80
72440;DHT22;60446;50.752;4.352;2023-07-13T01:29:42;15.60;72.00
72440;DHT22;60446;50.752;4.352;2023-07-13T01:32:13;15.60;72.00
72440;DHT22;60446;50.752;4.352;2023-07-13T01:34:42;15.60;72.00
72440;DHT22;60446;50.752;4.352;2023-07-13T01:37:11;15.60;72.30
72440;DHT22;60446;50.752;4.352;2023-07-13T01:39:38;15.60;72.20
72440;DHT22;60446;50.752;4.352;2023-07-13T01:42:06;15.50;72.40
72440;DHT22;60446;50.752;4.352;2023-07-13T01:44:33;15.50;72.30
72440;DHT22;60446;50.752;4.352;2023-07-13T01:47:01;15.50;72.40
72440;DHT22;60446;50.752;4.352;2023-07-13T01:49:29;15.40;72.70
72440;DHT22;60446;50.752;4.352;2023-07-13T01:51:56;15.40;72.80
72440;DHT22;60446;50.752;4.352;2023-07-13T01:54:24;15.40;72.80
72440;DHT22;60446;50.752;4.352;2023-07-13T01:56:51;15.40;73.00
72440;DHT22;60446;50.752;4.352;2023-07-13T01:59:18;15.40;73.00
72440;DHT22;60446;50.752;4.352;2023-07-13T02:01:45;15.40;73.00
72440;DHT22;60446;50.752;4.352;2023-07-13T02:04:12;15.40;73.10
72440;DHT22;60446;50.752;4.352;2023-07-13T02:06:40;15.40;73.20
72440;DHT22;60446;50.752;4.352;2023-07-13T02:09:07;15.40;73.10
72440;DHT22;60446;50.752;4.352;2023-07-13T02:11:34;15.30;73.10
72440;DHT22;60446;50.752;4.352;2023-07-13T02:14:02;15.40;73.10
72440;DHT22;60446;50.752;4.352;2023-07-13T02:16:30;15.40;73.20
72440;DHT22;60446;50.752;4.352;2023-07-13T02:18:58;15.30;73.50
72440;DHT22;60446;50.752;4.352;2023-07-13T02:21:26;15.30;73.60
72440;DHT22;60446;50.752;4.352;2023-07-13T02:23:53;15.30;73.70
72440;DHT22;60446;50.752;4.352;2023-07-13T02:26:21;15.20;73.80
72440;DHT22;60446;50.752;4.352;2023-07-13T02:28:48;15.20;74.10
72440;DHT22;60446;50.752;4.352;2023-07-13T02:31:17;15.20;74.10
72440;DHT22;60446;50.752;4.352;2023-07-13T02:33:45;15.10;74.20
72440;DHT22;60446;50.752;4.352;2023-07-13T02:36:13;15.10;74.10
72440;DHT22;60446;50.752;4.352;2023-07-13T02:38:44;15.10;74.20
72440;DHT22;60446;50.752;4.352;2023-07-13T02:41:11;15.10;74.40
72440;DHT22;60446;50.752;4.352;2023-07-13T02:43:39;15.10;74.50
72440;DHT22;60446;50.752;4.352;2023-07-13T02:46:08;15.00;74.80
72440;DHT22;60446;50.752;4.352;2023-07-13T02:48:38;15.00;75.10
72440;DHT22;60446;50.752;4.352;2023-07-13T02:51:06;15.00;74.80
72440;DHT22;60446;50.752;4.352;2023-07-13T02:53:35;15.00;75.00
72440;DHT22;60446;50.752;4.352;2023-07-13T02:56:04;15.00;74.80
72440;DHT22;60446;50.752;4.352;2023-07-13T02:58:32;15.00;74.90
72440;DHT22;60446;50.752;4.352;2023-07-13T03:00:59;15.00;75.10
72440;DHT22;60446;50.752;4.352;2023-07-13T03:03:26;14.90;75.00
72440;DHT22;60446;50.752;4.352;2023-07-13T03:06:02;14.90;75.30
72440;DHT22;60446;50.752;4.352;2023-07-13T03:08:38;14.90;75.50
72440;DHT22;60446;50.752;4.352;2023-07-13T03:11:16;14.80;75.60
72440;DHT22;60446;50.752;4.352;2023-07-13T03:13:50;14.80;75.60
72440;DHT22;60446;50.752;4.352;2023-07-13T03:16:18;14.80;75.80
72440;DHT22;60446;50.752;4.352;2023-07-13T03:18:48;14.70;76.00
72440;DHT22;60446;50.752;4.352;2023-07-13T03:21:16;14.70;75.80
72440;DHT22;60446;50.752;4.352;2023-07-13T03:23:43;14.70;76.00
72440;DHT22;60446;50.752;4.352;2023-07-13T03:26:14;14.70;76.00
72440;DHT22;60446;50.752;4.352;2023-07-13T03:28:42;14.70;76.10
72440;DHT22;60446;50.752;4.352;2023-07-13T03:31:18;14.70;76.20
72440;DHT22;60446;50.752;4.352;2023-07-13T03:33:47;14.70;76.30
72440;DHT22;60446;50.752;4.352;2023-07-13T03:36:24;14.80;76.50
72440;DHT22;60446;50.752;4.352;2023-07-13T03:38:59;14.80;76.50
72440;DHT22;60446;50.752;4.352;2023-07-13T03:41:34;14.90;76.50
72440;DHT22;60446;50.752;4.352;2023-07-13T03:44:02;14.90;76.20
72440;DHT22;60446;50.752;4.352;2023-07-13T03:46:30;15.00;76.20
72440;DHT22;60446;50.752;4.352;2023-07-13T03:48:57;15.00;76.00
72440;DHT22;60446;50.752;4.352;2023-07-13T03:51:25;15.00;76.30
72440;DHT22;60446;50.752;4.352;2023-07-13T03:53:52;15.10;76.20
72440;DHT22;60446;50.752;4.352;2023-07-13T03:56:20;15.10;75.90
72440;DHT22;60446;50.752;4.352;2023-07-13T03:58:49;15.10;76.10
72440;DHT22;60446;50.752;4.352;2023-07-13T04:01:20;15.20;75.90
72440;DHT22;60446;50.752;4.352;2023-07-13T04:03:49;15.20;75.70
72440;DHT22;60446;50.752;4.352;2023-07-13T04:06:36;15.20;75.60
72440;DHT22;60446;50.752;4.352;2023-07-13T04:09:04;15.20;75.90
72440;DHT22;60446;50.752;4.352;2023-07-13T04:11:36;15.30;75.90
72440;DHT22;60446;50.752;4.352;2023-07-13T04:14:04;15.30;76.00
72440;DHT22;60446;50.752;4.352;2023-07-13T04:16:31;15.40;76.00
72440;DHT22;60446;50.752;4.352;2023-07-13T04:18:59;15.40;76.30
72440;DHT22;60446;50.752;4.352;2023-07-13T04:21:29;15.50;76.30
72440;DHT22;60446;50.752;4.352;2023-07-13T04:23:57;15.60;75.60
72440;DHT22;60446;50.752;4.352;2023-07-13T04:26:25;15.70;75.40
72440;DHT22;60446;50.752;4.352;2023-07-13T04:28:52;15.70;75.10
72440;DHT22;60446;50.752;4.352;2023-07-13T04:31:20;15.80;75.40
72440;DHT22;60446;50.752;4.352;2023-07-13T04:33:48;15.80;75.10
72440;DHT22;60446;50.752;4.352;2023-07-13T04:36:16;15.80;75.30
72440;DHT22;60446;50.752;4.352;2023-07-13T04:38:43;15.90;74.80
72440;DHT22;60446;50.752;4.352;2023-07-13T04:41:12;16.00;74.70
72440;DHT22;60446;50.752;4.352;2023-07-13T04:43:40;16.10;74.40
72440;DHT22;60446;50.752;4.352;2023-07-13T04:46:11;16.00;74.40
72440;DHT22;60446;50.752;4.352;2023-07-13T04:48:40;16.00;74.70
72440;DHT22;60446;50.752;4.352;2023-07-13T04:51:08;16.00;75.10
72440;DHT22;60446;50.752;4.352;2023-07-13T04:53:35;16.10;74.70
72440;DHT22;60446;50.752;4.352;2023-07-13T04:56:03;16.10;74.50
72440;DHT22;60446;50.752;4.352;2023-07-13T04:58:31;16.20;74.20
72440;DHT22;60446;50.752;4.352;2023-07-13T05:01:06;16.20;74.20
72440;DHT22;60446;50.752;4.352;2023-07-13T05:03:34;16.30;74.10
72440;DHT22;60446;50.752;4.352;2023-07-13T05:06:04;16.30;74.50
72440;DHT22;60446;50.752;4.352;2023-07-13T05:08:33;16.30;73.80
72440;DHT22;60446;50.752;4.352;2023-07-13T05:11:01;16.30;73.90
72440;DHT22;60446;50.752;4.352;2023-07-13T05:13:30;16.30;74.30
72440;DHT22;60446;50.752;4.352;2023-07-13T05:15:59;16.40;74.10
72440;DHT22;60446;50.752;4.352;2023-07-13T05:18:27;16.40;74.10
72440;DHT22;60446;50.752;4.352;2023-07-13T05:21:04;16.40;73.30
72440;DHT22;60446;50.752;4.352;2023-07-13T05:23:34;16.50;73.40
72440;DHT22;60446;50.752;4.352;2023-07-13T05:26:02;16.50;73.40
72440;DHT22;60446;50.752;4.352;2023-07-13T05:28:35;16.60;74.00
72440;DHT22;60446;50.752;4.352;2023-07-13T05:31:02;16.70;73.30
72440;DHT22;60446;50.752;4.352;2023-07-13T05:33:29;16.80;72.40
72440;DHT22;60446;50.752;4.352;2023-07-13T05:35:57;16.90;72.30
72440;DHT22;60446;50.752;4.352;2023-07-13T05:38:24;16.90;72.30
72440;DHT22;60446;50.752;4.352;2023-07-13T05:40:54;16.80;72.40
72440;DHT22;60446;50.752;4.352;2023-07-13T05:43:23;16.80;72.80
72440;DHT22;60446;50.752;4.352;2023-07-13T05:45:55;16.80;72.60
72440;DHT22;60446;50.752;4.352;2023-07-13T05:48:23;16.90;72.70
72440;DHT22;60446;50.752;4.352;2023-07-13T05:50:50;16.90;72.60
72440;DHT22;60446;50.752;4.352;2023-07-13T05:53:18;17.00;72.60
72440;DHT22;60446;50.752;4.352;2023-07-13T05:55:46;16.90;72.00
72440;DHT22;60446;50.752;4.352;2023-07-13T05:58:17;17.00;72.60
72440;DHT22;60446;50.752;4.352;2023-07-13T06:00:45;17.10;72.70
72440;DHT22;60446;50.752;4.352;2023-07-13T06:03:14;17.20;71.60
72440;DHT22;60446;50.752;4.352;2023-07-13T06:05:41;17.20;72.30
72440;DHT22;60446;50.752;4.352;2023-07-13T06:08:09;17.30;71.70
72440;DHT22;60446;50.752;4.352;2023-07-13T06:10:36;17.40;71.90
72440;DHT22;60446;50.752;4.352;2023-07-13T06:13:03;17.50;71.40
72440;DHT22;60446;50.752;4.352;2023-07-13T06:15:31;17.50;71.40
72440;DHT22;60446;50.752;4.352;2023-07-13T06:17:58;17.50;71.50
72440;DHT22;60446;50.752;4.352;2023-07-13T06:20:25;17.60;71.40
72440;DHT22;60446;50.752;4.352;2023-07-13T06:22:52;17.60;71.10
72440;DHT22;60446;50.752;4.352;2023-07-13T06:25:19;17.70;71.10
72440;DHT22;60446;50.752;4.352;2023-07-13T06:27:46;17.80;70.40
72440;DHT22;60446;50.752;4.352;2023-07-13T06:30:14;17.80;70.70
72440;DHT22;60446;50.752;4.352;2023-07-13T06:32:41;17.80;70.50
72440;DHT22;60446;50.752;4.352;2023-07-13T06:35:08;18.00;71.00
72440;DHT22;60446;50.752;4.352;2023-07-13T06:37:39;18.10;70.50
72440;DHT22;60446;50.752;4.352;2023-07-13T06:40:07;18.30;70.80
72440;DHT22;60446;50.752;4.352;2023-07-13T06:42:34;18.40;68.60
72440;DHT22;60446;50.752;4.352;2023-07-13T06:45:02;18.50;68.90
72440;DHT22;60446;50.752;4.352;2023-07-13T06:47:29;18.60;69.30
72440;DHT22;60446;50.752;4.352;2023-07-13T06:50:00;18.70;69.10
72440;DHT22;60446;50.752;4.352;2023-07-13T06:52:28;18.70;67.90
72440;DHT22;60446;50.752;4.352;2023-07-13T06:54:55;18.60;68.20
72440;DHT22;60446;50.752;4.352;2023-07-13T06:57:22;18.70;67.90
72440;DHT22;60446;50.752;4.352;2023-07-13T06:59:49;18.50;68.60
72440;DHT22;60446;50.752;4.352;2023-07-13T07:02:17;18.50;68.50
72440;DHT22;60446;50.752;4.352;2023-07-13T07:04:44;18.60;68.60
72440;DHT22;60446;50.752;4.352;2023-07-13T07:07:11;18.70;68.40
72440;DHT22;60446;50.752;4.352;2023-07-13T07:09:38;18.70;68.00
72440;DHT22;60446;50.752;4.352;2023-07-13T07:12:05;18.70;68.00
72440;DHT22;60446;50.752;4.352;2023-07-13T07:14:33;18.70;66.90
72440;DHT22;60446;50.752;4.352;2023-07-13T07:17:01;18.70;67.80
72440;DHT22;60446;50.752;4.352;2023-07-13T07:19:30;18.80;68.40
72440;DHT22;60446;50.752;4.352;2023-07-13T07:21:57;18.90;67.20
72440;DHT22;60446;50.752;4.352;2023-07-13T07:24:24;18.80;67.20
72440;DHT22;60446;50.752;4.352;2023-07-13T07:26:51;19.00;68.10
72440;DHT22;60446;50.752;4.352;2023-07-13T07:29:22;19.10;67.10
72440;DHT22;60446;50.752;4.352;2023-07-13T07:31:52;19.20;66.10
72440;DHT22;60446;50.752;4.352;2023-07-13T07:34:23;19.30;66.20
72440;DHT22;60446;50.752;4.352;2023-07-13T07:36:51;19.30;65.60
72440;DHT22;60446;50.752;4.352;2023-07-13T07:39:21;19.40;66.40
72440;DHT22;60446;50.752;4.352;2023-07-13T07:41:48;19.40;65.20
72440;DHT22;60446;50.752;4.352;2023-07-13T07:44:18;19.30;66.10
72440;DHT22;60446;50.752;4.352;2023-07-13T07:46:46;19.30;66.70
72440;DHT22;60446;50.752;4.352;2023-07-13T07:49:13;19.30;66.40
72440;DHT22;60446;50.752;4.352;2023-07-13T07:51:40;19.30;66.50
72440;DHT22;60446;50.752;4.352;2023-07-13T07:54:07;19.30;66.30
72440;DHT22;60446;50.752;4.352;2023-07-13T07:56:40;19.30;66.80
72440;DHT22;60446;50.752;4.352;2023-07-13T07:59:10;19.20;65.90
72440;DHT22;60446;50.752;4.352;2023-07-13T08:01:40;19.10;66.50
72440;DHT22;60446;50.752;4.352;2023-07-13T08:04:27;19.00;66.70
72440;DHT22;60446;50.752;4.352;2023-07-13T08:06:58;19.00;66.90
72440;DHT22;60446;50.752;4.352;2023-07-13T08:09:25;19.00;67.40
72440;DHT22;60446;50.752;4.352;2023-07-13T08:11:52;19.10;66.60
72440;DHT22;60446;50.752;4.352;2023-07-13T08:14:24;19.30;66.70
72440;DHT22;60446;50.752;4.352;2023-07-13T08:17:08;19.40;66.40
72440;DHT22;60446;50.752;4.352;2023-07-13T08:19:35;19.60;66.70
72440;DHT22;60446;50.752;4.352;2023-07-13T08:22:03;19.70;66.30
72440;DHT22;60446;50.752;4.352;2023-07-13T08:24:30;19.90;67.60
72440;DHT22;60446;50.752;4.352;2023-07-13T08:26:57;20.10;63.90
72440;DHT22;60446;50.752;4.352;2023-07-13T08:29:24;20.10;64.30
72440;DHT22;60446;50.752;4.352;2023-07-13T08:31:51;20.00;64.80
72440;DHT22;60446;50.752;4.352;2023-07-13T08:34:18;19.90;64.40
72440;DHT22;60446;50.752;4.352;2023-07-13T08:36:46;20.00;66.00
72440;DHT22;60446;50.752;4.352;2023-07-13T08:39:13;20.20;65.20
72440;DHT22;60446;50.752;4.352;2023-07-13T08:41:40;20.40;63.90
72440;DHT22;60446;50.752;4.352;2023-07-13T08:44:23;20.50;63.00
72440;DHT22;60446;50.752;4.352;2023-07-13T08:46:58;20.70;64.10
72440;DHT22;60446;50.752;4.352;2023-07-13T08:49:26;20.80;62.50
72440;DHT22;60446;50.752;4.352;2023-07-13T08:51:58;20.80;62.30
72440;DHT22;60446;50.752;4.352;2023-07-13T08:54:50;21.00;63.10
72440;DHT22;60446;50.752;4.352;2023-07-13T08:57:27;21.20;62.70
72440;DHT22;60446;50.752;4.352;2023-07-13T08:59:58;21.30;61.60
72440;DHT22;60446;50.752;4.352;2023-07-13T09:05:40;21.50;61.20
72440;DHT22;60446;50.752;4.352;2023-07-13T09:14:31;21.70;59.50
72440;DHT22;60446;50.752;4.352;2023-07-13T09:17:03;21.40;60.30
72440;DHT22;60446;50.752;4.352;2023-07-13T09:19:32;21.30;59.20
72440;DHT22;60446;50.752;4.352;2023-07-13T09:22:02;21.20;60.40
72440;DHT22;60446;50.752;4.352;2023-07-13T09:24:41;21.10;60.80
72440;DHT22;60446;50.752;4.352;2023-07-13T09:27:19;21.20;61.40
72440;DHT22;60446;50.752;4.352;2023-07-13T09:30:00;21.50;59.00
72440;DHT22;60446;50.752;4.352;2023-07-13T09:32:36;21.60;58.70
72440;DHT22;60446;50.752;4.352;2023-07-13T09:35:11;21.80;59.50
72440;DHT22;60446;50.752;4.352;2023-07-13T09:37:39;21.80;59.10
72440;DHT22;60446;50.752;4.352;2023-07-13T09:40:25;21.80;60.00
72440;DHT22;60446;50.752;4.352;2023-07-13T09:42:58;21.90;59.70
72440;DHT22;60446;50.752;4.352;2023-07-13T09:45:30;22.20;57.60
72440;DHT22;60446;50.752;4.352;2023-07-13T09:48:04;22.30;59.30
72440;DHT22;60446;50.752;4.352;2023-07-13T09:50:33;22.20;57.30
72440;DHT22;60446;50.752;4.352;2023-07-13T09:53:01;22.30;57.90
72440;DHT22;60446;50.752;4.352;2023-07-13T09:55:36;22.30;58.80
72440;DHT22;60446;50.752;4.352;2023-07-13T09:58:24;22.30;58.10
72440;DHT22;60446;50.752;4.352;2023-07-13T10:01:03;22.20;58.90
72440;DHT22;60446;50.752;4.352;2023-07-13T10:03:36;22.20;58.70
72440;DHT22;60446;50.752;4.352;2023-07-13T10:06:15;22.10;57.90
72440;DHT22;60446;50.752;4.352;2023-07-13T10:08:47;22.10;59.10
72440;DHT22;60446;50.752;4.352;2023-07-13T10:11:23;22.10;57.00
72440;DHT22;60446;50.752;4.352;2023-07-13T10:14:16;22.20;59.40
72440;DHT22;60446;50.752;4.352;2023-07-13T10:16:45;22.30;57.40
72440;DHT22;60446;50.752;4.352;2023-07-13T10:19:36;22.30;57.00
72440;DHT22;60446;50.752;4.352;2023-07-13T10:22:24;22.10;57.60
72440;DHT22;60446;50.752;4.352;2023-07-13T10:24:55;22.00;58.40
72440;DHT22;60446;50.752;4.352;2023-07-13T10:27:33;21.90;59.90
72440;DHT22;60446;50.752;4.352;2023-07-13T10:30:09;22.00;60.50
72440;DHT22;60446;50.752;4.352;2023-07-13T10:32:39;22.20;60.00
72440;DHT22;60446;50.752;4.352;2023-07-13T10:35:11;22.20;57.60
72440;DHT22;60446;50.752;4.352;2023-07-13T10:37:59;22.20;57.90
72440;DHT22;60446;50.752;4.352;2023-07-13T10:41:06;22.40;57.00
72440;DHT22;60446;50.752;4.352;2023-07-13T10:43:41;22.60;55.70
72440;DHT22;60446;50.752;4.352;2023-07-13T10:46:15;22.90;55.90
72440;DHT22;60446;50.752;4.352;2023-07-13T10:48:48;23.30;55.20
72440;DHT22;60446;50.752;4.352;2023-07-13T10:51:19;23.60;53.10
72440;DHT22;60446;50.752;4.352;2023-07-13T10:54:34;23.60;52.80
72440;DHT22;60446;50.752;4.352;2023-07-13T10:57:20;23.50;52.80
72440;DHT22;60446;50.752;4.352;2023-07-13T11:00:13;23.30;53.70
72440;DHT22;60446;50.752;4.352;2023-07-13T11:02:43;23.30;55.40
72440;DHT22;60446;50.752;4.352;2023-07-13T11:05:26;23.20;55.20
72440;DHT22;60446;50.752;4.352;2023-07-13T11:08:51;22.90;54.70
72440;DHT22;60446;50.752;4.352;2023-07-13T11:14:09;23.10;55.10
72440;DHT22;60446;50.752;4.352;2023-07-13T11:16:57;23.20;54.80
72440;DHT22;60446;50.752;4.352;2023-07-13T11:19:28;23.30;54.80
72440;DHT22;60446;50.752;4.352;2023-07-13T11:25:01;23.50;53.00
72440;DHT22;60446;50.752;4.352;2023-07-13T11:27:46;23.50;53.30
72440;DHT22;60446;50.752;4.352;2023-07-13T11:33:01;23.80;54.00
72440;DHT22;60446;50.752;4.352;2023-07-13T11:35:36;23.90;53.40
72440;DHT22;60446;50.752;4.352;2023-07-13T11:38:21;24.10;53.00
72440;DHT22;60446;50.752;4.352;2023-07-13T11:40:53;24.10;51.60
72440;DHT22;60446;50.752;4.352;2023-07-13T11:43:22;24.00;52.00
72440;DHT22;60446;50.752;4.352;2023-07-13T11:45:50;24.10;52.70
72440;DHT22;60446;50.752;4.352;2023-07-13T11:48:27;24.10;51.40
72440;DHT22;60446;50.752;4.352;2023-07-13T11:51:00;24.10;50.90
72440;DHT22;60446;50.752;4.352;2023-07-13T11:53:38;23.90;51.60
72440;DHT22;60446;50.752;4.352;2023-07-13T11:56:10;23.50;51.10
72440;DHT22;60446;50.752;4.352;2023-07-13T11:58:38;23.20;52.00
72440;DHT22;60446;50.752;4.352;2023-07-13T12:01:06;23.10;52.10
72440;DHT22;60446;50.752;4.352;2023-07-13T12:03:34;23.20;51.90
72440;DHT22;60446;50.752;4.352;2023-07-13T12:06:04;23.40;52.70
72440;DHT22;60446;50.752;4.352;2023-07-13T12:08:38;23.60;51.40
72440;DHT22;60446;50.752;4.352;2023-07-13T12:11:17;23.80;51.00
72440;DHT22;60446;50.752;4.352;2023-07-13T12:13:46;23.80;51.20
72440;DHT22;60446;50.752;4.352;2023-07-13T12:18:54;24.00;50.60
72440;DHT22;60446;50.752;4.352;2023-07-13T12:21:37;24.20;50.90
72440;DHT22;60446;50.752;4.352;2023-07-13T12:24:14;24.20;48.20
72440;DHT22;60446;50.752;4.352;2023-07-13T12:26:42;24.20;49.90
72440;DHT22;60446;50.752;4.352;2023-07-13T12:29:16;24.10;48.70
72440;DHT22;60446;50.752;4.352;2023-07-13T12:31:46;23.90;49.20
72440;DHT22;60446;50.752;4.352;2023-07-13T12:34:18;23.90;49.80
72440;DHT22;60446;50.752;4.352;2023-07-13T12:42:25;23.40;49.90
72440;DHT22;60446;50.752;4.352;2023-07-13T12:45:20;22.90;50.40
72440;DHT22;60446;50.752;4.352;2023-07-13T12:48:05;22.50;52.00
72440;DHT22;60446;50.752;4.352;2023-07-13T12:50:43;21.60;56.20
72440;DHT22;60446;50.752;4.352;2023-07-13T12:53:15;21.00;59.00
72440;DHT22;60446;50.752;4.352;2023-07-13T12:55:48;20.60;61.20
72440;DHT22;60446;50.752;4.352;2023-07-13T13:01:04;20.20;62.50
72440;DHT22;60446;50.752;4.352;2023-07-13T13:03:38;20.30;63.00
72440;DHT22;60446;50.752;4.352;2023-07-13T13:06:27;20.70;62.20
72440;DHT22;60446;50.752;4.352;2023-07-13T13:08:58;21.10;61.80
72440;DHT22;60446;50.752;4.352;2023-07-13T13:11:28;21.70;59.00
72440;DHT22;60446;50.752;4.352;2023-07-13T13:13:56;21.90;59.30
72440;DHT22;60446;50.752;4.352;2023-07-13T13:16:31;22.10;58.80
72440;DHT22;60446;50.752;4.352;2023-07-13T13:19:18;21.90;57.80
72440;DHT22;60446;50.752;4.352;2023-07-13T13:21:53;21.90;57.70
72440;DHT22;60446;50.752;4.352;2023-07-13T13:24:25;22.00;57.10
72440;DHT22;60446;50.752;4.352;2023-07-13T13:26:54;22.40;57.50
72440;DHT22;60446;50.752;4.352;2023-07-13T13:29:25;22.90;55.10
72440;DHT22;60446;50.752;4.352;2023-07-13T13:31:54;23.00;56.70
72440;DHT22;60446;50.752;4.352;2023-07-13T13:34:23;23.30;55.20
72440;DHT22;60446;50.752;4.352;2023-07-13T13:36:52;23.60;54.80
72440;DHT22;60446;50.752;4.352;2023-07-13T13:39:36;23.90;55.50
72440;DHT22;60446;50.752;4.352;2023-07-13T13:42:04;24.00;53.90
72440;DHT22;60446;50.752;4.352;2023-07-13T13:44:32;24.10;54.30
72440;DHT22;60446;50.752;4.352;2023-07-13T13:46:59;24.30;53.30
72440;DHT22;60446;50.752;4.352;2023-07-13T13:49:27;24.60;53.20
72440;DHT22;60446;50.752;4.352;2023-07-13T13:51:57;24.80;51.70
72440;DHT22;60446;50.752;4.352;2023-07-13T13:54:25;24.90;53.40
72440;DHT22;60446;50.752;4.352;2023-07-13T13:56:53;24.90;50.10
72440;DHT22;60446;50.752;4.352;2023-07-13T13:59:22;24.80;49.70
72440;DHT22;60446;50.752;4.352;2023-07-13T14:01:50;24.80;50.30
72440;DHT22;60446;50.752;4.352;2023-07-13T14:04:19;25.00;50.20
72440;DHT22;60446;50.752;4.352;2023-07-13T14:06:50;25.10;47.10
72440;DHT22;60446;50.752;4.352;2023-07-13T14:09:19;24.90;47.60
72440;DHT22;60446;50.752;4.352;2023-07-13T14:11:49;24.60;48.90
72440;DHT22;60446;50.752;4.352;2023-07-13T14:14:20;24.30;47.60
72440;DHT22;60446;50.752;4.352;2023-07-13T14:16:50;23.90;49.20
72440;DHT22;60446;50.752;4.352;2023-07-13T14:19:21;23.60;49.40
72440;DHT22;60446;50.752;4.352;2023-07-13T14:21:49;23.30;50.80
72440;DHT22;60446;50.752;4.352;2023-07-13T14:24:20;23.10;50.60
72440;DHT22;60446;50.752;4.352;2023-07-13T14:26:48;22.90;51.30
72440;DHT22;60446;50.752;4.352;2023-07-13T14:29:17;22.70;53.20
72440;DHT22;60446;50.752;4.352;2023-07-13T14:31:50;22.30;55.60
72440;DHT22;60446;50.752;4.352;2023-07-13T14:34:17;22.10;56.50
72440;DHT22;60446;50.752;4.352;2023-07-13T14:36:47;21.90;58.10
72440;DHT22;60446;50.752;4.352;2023-07-13T14:39:17;21.70;57.70
72440;DHT22;60446;50.752;4.352;2023-07-13T14:41:49;21.60;58.70
72440;DHT22;60446;50.752;4.352;2023-07-13T14:44:21;21.60;59.60
72440;DHT22;60446;50.752;4.352;2023-07-13T14:46:53;21.60;60.40
72440;DHT22;60446;50.752;4.352;2023-07-13T14:51:59;21.70;61.90
72440;DHT22;60446;50.752;4.352;2023-07-13T14:54:28;21.70;62.30
72440;DHT22;60446;50.752;4.352;2023-07-13T14:56:55;21.60;63.70
72440;DHT22;60446;50.752;4.352;2023-07-13T14:59:22;21.60;63.10
72440;DHT22;60446;50.752;4.352;2023-07-13T15:01:51;21.60;63.00
72440;DHT22;60446;50.752;4.352;2023-07-13T15:04:18;21.80;63.90
72440;DHT22;60446;50.752;4.352;2023-07-13T15:06:59;21.80;64.00
72440;DHT22;60446;50.752;4.352;2023-07-13T15:09:28;21.70;64.60
72440;DHT22;60446;50.752;4.352;2023-07-13T15:11:56;21.50;65.40
72440;DHT22;60446;50.752;4.352;2023-07-13T15:14:25;21.50;64.80
72440;DHT22;60446;50.752;4.352;2023-07-13T15:16:55;21.60;65.20
72440;DHT22;60446;50.752;4.352;2023-07-13T15:19:23;21.80;63.00
72440;DHT22;60446;50.752;4.352;2023-07-13T15:21:55;22.00;64.40
72440;DHT22;60446;50.752;4.352;2023-07-13T15:24:24;22.20;62.80
72440;DHT22;60446;50.752;4.352;2023-07-13T15:26:52;22.40;61.00
72440;DHT22;60446;50.752;4.352;2023-07-13T15:29:19;22.80;59.50
72440;DHT22;60446;50.752;4.352;2023-07-13T15:31:46;23.60;58.00
72440;DHT22;60446;50.752;4.352;2023-07-13T15:34:16;24.80;56.10
72440;DHT22;60446;50.752;4.352;2023-07-13T15:36:45;25.90;55.20
72440;DHT22;60446;50.752;4.352;2023-07-13T15:39:16;26.90;49.50
72440;DHT22;60446;50.752;4.352;2023-07-13T15:41:45;27.50;46.60
72440;DHT22;60446;50.752;4.352;2023-07-13T15:44:29;27.60;46.70
72440;DHT22;60446;50.752;4.352;2023-07-13T15:46:58;27.70;45.60
72440;DHT22;60446;50.752;4.352;2023-07-13T15:49:30;27.70;47.30
72440;DHT22;60446;50.752;4.352;2023-07-13T15:51:57;27.60;47.20
72440;DHT22;60446;50.752;4.352;2023-07-13T15:54:24;27.30;46.60
72440;DHT22;60446;50.752;4.352;2023-07-13T15:56:54;27.10;47.10
72440;DHT22;60446;50.752;4.352;2023-07-13T15:59:22;26.70;49.10
72440;DHT22;60446;50.752;4.352;2023-07-13T16:01:50;26.40;49.40
72440;DHT22;60446;50.752;4.352;2023-07-13T16:04:17;26.10;49.60
72440;DHT22;60446;50.752;4.352;2023-07-13T16:06:47;25.90;50.00
72440;DHT22;60446;50.752;4.352;2023-07-13T16:09:19;26.00;51.00
72440;DHT22;60446;50.752;4.352;2023-07-13T16:11:50;26.00;49.60
72440;DHT22;60446;50.752;4.352;2023-07-13T16:14:19;25.80;50.70
72440;DHT22;60446;50.752;4.352;2023-07-13T16:16:48;25.50;51.60
72440;DHT22;60446;50.752;4.352;2023-07-13T16:19:17;25.20;49.00
72440;DHT22;60446;50.752;4.352;2023-07-13T16:21:49;25.00;52.10
72440;DHT22;60446;50.752;4.352;2023-07-13T16:24:20;24.80;52.00
72440;DHT22;60446;50.752;4.352;2023-07-13T16:26:49;24.50;49.80
72440;DHT22;60446;50.752;4.352;2023-07-13T16:29:22;24.30;52.00